Time;durP1;ratioP1;P1;durP2;ratioP2;P2;SDS_P1;SDS_P2;PMS_P1;PMS_P2;Temp;Humidity;BMP_temperature;BMP_pressure;BME280_temperature;BME280_humidity;BME280_pressure;Samples;Min_cycle;Max_cycle;Signal;HPM_P1;HPM_P2
2022/06/10 00:00:28;;;;;;;6.47;1.80;;;13.10;99.90;;;;;;4846355;29;20049;-86
2022/06/10 00:02:54;;;;;;;6.00;1.90;;;13.10;99.90;;;;;;4846521;29;20050;-85
2022/06/10 00:05:28;;;;;;;7.07;2.03;;;13.10;99.90;;;;;;4853710;29;20037;-86
2022/06/10 00:07:54;;;;;;;8.23;1.75;;;13.10;99.90;;;;;;4864367;29;20045;-86
2022/06/10 00:10:27;;;;;;;7.75;2.03;;;13.00;99.90;;;;;;4849397;29;20413;-86
2022/06/10 00:12:56;;;;;;;6.90;2.10;;;13.00;99.90;;;;;;4834312;29;20117;-86
2022/06/10 00:15:24;;;;;;;6.38;1.90;;;12.90;99.90;;;;;;4852564;29;20033;-85
2022/06/10 00:17:58;;;;;;;7.05;2.13;;;12.90;99.90;;;;;;4846091;29;20046;-85
2022/06/10 00:20:35;;;;;;;5.82;1.85;;;12.90;99.90;;;;;;4845711;29;20442;-86
2022/06/10 00:23:04;;;;;;;8.15;1.90;;;12.90;99.90;;;;;;4835139;29;20516;-86
2022/06/10 00:25:30;;;;;;;6.78;2.10;;;12.90;99.90;;;;;;4858825;29;20046;-86
2022/06/10 00:27:56;;;;;;;7.32;2.05;;;12.90;99.90;;;;;;4849815;29;20046;-86
2022/06/10 00:30:26;;;;;;;7.32;2.08;;;12.80;99.90;;;;;;4842928;29;20041;-85
2022/06/10 00:32:52;;;;;;;9.00;2.30;;;12.80;99.90;;;;;;4827322;29;20410;-86
2022/06/10 00:35:18;;;;;;;6.30;1.90;;;12.80;99.90;;;;;;4843618;29;20077;-86
2022/06/10 00:37:44;;;;;;;6.57;2.00;;;12.80;99.90;;;;;;4852796;29;20456;-86
2022/06/10 00:40:23;;;;;;;7.22;1.90;;;13.00;99.90;;;;;;4867873;29;20489;-85
2022/06/10 00:42:50;;;;;;;6.18;1.88;;;12.70;99.90;;;;;;4845649;29;20137;-86
2022/06/10 00:45:53;;;;;;;5.18;1.95;;;12.70;99.90;;;;;;4830505;29;20044;-86
2022/06/10 00:48:54;;;;;;;6.30;2.00;;;12.70;99.90;;;;;;4860924;29;20441;-86
2022/06/10 00:51:22;;;;;;;6.38;2.10;;;12.70;99.90;;;;;;4860923;29;20076;-85
2022/06/10 00:53:54;;;;;;;6.28;2.08;;;12.70;99.90;;;;;;4851087;29;20120;-85
2022/06/10 00:56:24;;;;;;;8.15;2.10;;;12.70;99.90;;;;;;4860878;29;20098;-85
2022/06/10 00:59:01;;;;;;;7.25;2.00;;;12.60;99.90;;;;;;4845522;29;20101;-85
2022/06/10 01:01:33;;;;;;;7.68;2.22;;;12.10;99.90;;;;;;4861323;29;20397;-85
2022/06/10 01:04:06;;;;;;;8.07;2.30;;;12.50;99.90;;;;;;4829383;29;20046;-85
2022/06/10 01:06:32;;;;;;;7.28;2.45;;;12.50;99.90;;;;;;4846099;29;20076;-85
2022/06/10 01:09:00;;;;;;;7.45;2.22;;;12.40;99.90;;;;;;4830155;29;20057;-85
2022/06/10 01:11:48;;;;;;;7.18;2.28;;;12.40;99.90;;;;;;4848572;29;20569;-86
2022/06/10 01:14:28;;;;;;;8.73;2.63;;;12.10;99.90;;;;;;4860210;29;20049;-85
2022/06/10 01:16:57;;;;;;;8.77;2.83;;;12.30;99.90;;;;;;4861048;29;20550;-85
2022/06/10 01:19:55;;;;;;;8.18;2.38;;;12.20;99.90;;;;;;4859068;29;20049;-85
2022/06/10 01:22:33;;;;;;;8.73;2.20;;;12.10;99.90;;;;;;4840817;29;20053;-85
2022/06/10 01:25:33;;;;;;;7.75;2.30;;;12.10;99.90;;;;;;4847676;29;20049;-85
2022/06/10 01:28:19;;;;;;;7.72;2.30;;;12.10;99.90;;;;;;4860183;29;20132;-85
2022/06/10 01:31:03;;;;;;;8.07;2.40;;;12.00;99.90;;;;;;4844743;29;20041;-85
2022/06/10 01:33:40;;;;;;;9.60;3.13;;;12.00;99.90;;;;;;4859777;29;20064;-85
2022/06/10 01:36:13;;;;;;;7.35;2.60;;;12.00;99.90;;;;;;4860552;29;20394;-85
2022/06/10 01:39:04;;;;;;;6.80;2.13;;;11.90;99.90;;;;;;4859567;29;20343;-85
2022/06/10 01:41:53;;;;;;;8.63;2.53;;;11.90;99.90;;;;;;4836707;29;20082;-85
2022/06/10 01:44:55;;;;;;;9.98;2.92;;;11.90;99.90;;;;;;4844948;29;20462;-85
2022/06/10 01:47:33;;;;;;;9.93;2.63;;;11.90;99.90;;;;;;4860286;29;20508;-85
2022/06/10 01:50:09;;;;;;;8.70;2.40;;;11.90;99.90;;;;;;4879583;29;20045;-85
2022/06/10 01:52:51;;;;;;;8.85;2.85;;;11.80;99.90;;;;;;4844387;29;20045;-85
2022/06/10 01:55:28;;;;;;;8.23;2.70;;;11.80;99.90;;;;;;4844927;29;20094;-85
2022/06/10 01:58:15;;;;;;;9.45;2.58;;;11.70;99.90;;;;;;4859685;29;20393;-85
2022/06/10 02:00:45;;;;;;;7.25;2.35;;;11.70;99.90;;;;;;4844393;29;20060;-85
2022/06/10 02:03:21;;;;;;;7.70;2.53;;;11.70;99.90;;;;;;4859622;29;20378;-85
2022/06/10 02:06:03;;;;;;;8.48;2.63;;;11.70;99.90;;;;;;4842344;29;20042;-85
2022/06/10 02:08:42;;;;;;;9.65;2.85;;;11.70;99.90;;;;;;4847913;29;20046;-85
2022/06/10 02:11:14;;;;;;;11.45;3.90;;;11.70;99.90;;;;;;4854154;29;20060;-85
2022/06/10 02:13:49;;;;;;;;;;;11.80;99.90;;;;;;4836650;29;20049;-85
2022/06/10 02:16:22;;;;;;;8.20;2.60;;;11.70;99.90;;;;;;4859313;29;19920;-85
2022/06/10 02:19:22;;;;;;;6.53;2.55;;;11.70;99.90;;;;;;4834880;29;20186;-85
2022/06/10 02:22:01;;;;;;;10.48;3.40;;;11.60;99.90;;;;;;4833350;29;20491;-85
2022/06/10 02:24:37;;;;;;;8.32;2.97;;;11.60;99.90;;;;;;4843982;29;20046;-85
2022/06/10 02:27:16;;;;;;;9.68;3.20;;;11.50;99.90;;;;;;4844326;29;20045;-85
2022/06/10 02:29:50;;;;;;;8.15;2.55;;;11.50;99.90;;;;;;4843100;29;20532;-85
2022/06/10 02:32:16;;;;;;;9.00;3.00;;;11.50;99.90;;;;;;4859959;29;20493;-85
2022/06/10 02:34:41;;;;;;;8.23;2.60;;;11.50;99.90;;;;;;4858339;29;20046;-85
2022/06/10 02:37:39;;;;;;;8.27;2.72;;;11.50;99.90;;;;;;4844298;29;20118;-85
2022/06/10 02:40:22;;;;;;;10.57;3.42;;;11.50;99.90;;;;;;4840585;29;20045;-85
2022/06/10 02:43:09;;;;;;;8.45;2.90;;;11.50;99.90;;;;;;4859119;29;20418;-85
2022/06/10 02:45:45;;;;;;;8.10;2.40;;;11.40;99.90;;;;;;4850319;29;20044;-85
2022/06/10 02:48:35;;;;;;;9.05;2.53;;;11.40;99.90;;;;;;4880153;29;20499;-85
2022/06/10 02:51:01;;;;;;;8.20;2.80;;;11.40;99.90;;;;;;4849637;29;20045;-85
2022/06/10 02:53:28;;;;;;;8.00;2.10;;;11.40;99.90;;;;;;4828161;29;20052;-85
2022/06/10 02:55:54;;;;;;;7.82;2.47;;;11.40;99.90;;;;;;4830505;29;20247;-85
2022/06/10 03:01:13;;;;;;;7.28;2.28;;;11.50;99.90;;;;;;4866626;29;20523;-85
2022/06/10 03:04:05;;;;;;;7.45;2.50;;;11.50;99.90;;;;;;4845643;29;20088;-85
2022/06/10 03:07:00;;;;;;;6.93;2.35;;;11.50;99.90;;;;;;4843770;29;20041;-85
2022/06/10 03:09:58;;;;;;;8.95;2.40;;;11.50;99.90;;;;;;4832967;29;20042;-85
2022/06/10 03:12:32;;;;;;;8.23;2.17;;;11.60;99.90;;;;;;4846743;29;20493;-85
2022/06/10 03:15:19;;;;;;;7.88;2.40;;;11.60;99.90;;;;;;4858623;29;20084;-85
2022/06/10 03:17:47;;;;;;;8.27;2.40;;;11.60;99.90;;;;;;4861314;29;20057;-85
2022/06/10 03:20:53;;;;;;;8.10;2.25;;;11.60;99.90;;;;;;4861999;29;20120;-85
2022/06/10 03:23:22;;;;;;;7.68;2.38;;;11.70;99.90;;;;;;4841050;29;20056;-85
2022/06/10 03:26:16;;;;;;;9.38;2.60;;;11.70;99.90;;;;;;4846791;29;20076;-85
2022/06/10 03:28:50;;;;;;;8.10;2.40;;;11.70;99.90;;;;;;4862358;29;20128;-85
2022/06/10 03:31:18;;;;;;;8.40;2.60;;;11.70;99.90;;;;;;4877391;29;20045;-85
2022/06/10 03:33:49;;;;;;;7.88;2.47;;;11.70;99.90;;;;;;4861125;29;20539;-85
2022/06/10 03:36:23;;;;;;;6.82;2.40;;;11.70;99.90;;;;;;4846864;29;20059;-85
2022/06/10 03:38:51;;;;;;;7.32;2.75;;;11.70;99.90;;;;;;4852996;29;20079;-85
2022/06/10 03:41:42;;;;;;;10.77;3.22;;;11.70;99.90;;;;;;4876765;29;20049;-85
2022/06/10 03:44:17;;;;;;;9.25;2.90;;;11.70;99.90;;;;;;4851222;29;20040;-85
2022/06/10 03:46:47;;;;;;;7.45;2.60;;;11.70;99.90;;;;;;4846048;29;20493;-85
2022/06/10 03:49:17;;;;;;;8.35;2.67;;;11.70;99.90;;;;;;4855213;29;20500;-85
2022/06/10 03:51:44;;;;;;;7.75;2.80;;;11.70;99.90;;;;;;4846361;29;20087;-85
2022/06/10 03:54:15;;;;;;;10.40;3.25;;;11.70;99.90;;;;;;4863946;29;20044;-85
2022/06/10 03:56:41;;;;;;;12.17;3.70;;;11.70;99.90;;;;;;4846726;29;20410;-85
2022/06/10 03:59:07;;;;;;;9.15;2.95;;;11.70;99.90;;;;;;4814151;29;20046;-85
2022/06/10 04:01:32;;;;;;;10.00;3.67;;;11.70;99.90;;;;;;4813519;29;20102;-85
2022/06/10 04:03:59;;;;;;;9.82;3.38;;;11.60;99.90;;;;;;4842689;29;20050;-85
2022/06/10 04:06:25;;;;;;;11.38;3.67;;;11.60;99.90;;;;;;4828535;29;20042;-85
2022/06/10 04:08:51;;;;;;;8.20;2.70;;;11.70;99.90;;;;;;4842908;29;20042;-85
2022/06/10 04:11:17;;;;;;;9.38;3.15;;;11.60;99.90;;;;;;4843709;29;20486;-85
2022/06/10 04:13:44;;;;;;;11.07;2.65;;;11.60;99.90;;;;;;4831772;29;20070;-85
2022/06/10 04:16:11;;;;;;;11.07;3.55;;;11.60;99.90;;;;;;4810907;29;20409;-85
2022/06/10 04:18:37;;;;;;;10.73;3.03;;;11.60;99.90;;;;;;4834413;29;20050;-85
2022/06/10 04:21:04;;;;;;;11.70;3.70;;;11.60;99.90;;;;;;4842760;29;20046;-85
2022/06/10 04:23:30;;;;;;;11.50;4.28;;;11.60;99.90;;;;;;4819971;29;20395;-85
2022/06/10 04:25:55;;;;;;;14.70;4.78;;;11.60;99.90;;;;;;4833168;29;20042;-85
2022/06/10 04:28:21;;;;;;;10.05;3.50;;;11.60;99.90;;;;;;4824397;29;20038;-85
2022/06/10 04:30:50;;;;;;;12.18;4.55;;;11.70;99.90;;;;;;4816301;29;20103;-85
2022/06/10 04:33:17;;;;;;;13.25;4.80;;;11.70;99.90;;;;;;4854930;29;20124;-85
2022/06/10 04:35:45;;;;;;;13.45;5.03;;;11.70;99.90;;;;;;4827902;29;20052;-85
2022/06/10 04:38:14;;;;;;;14.63;5.20;;;11.80;99.90;;;;;;4825250;29;20054;-85
2022/06/10 04:40:40;;;;;;;11.48;5.07;;;11.80;99.90;;;;;;4853961;29;20042;-85
2022/06/10 04:43:07;;;;;;;13.68;4.70;;;11.90;99.90;;;;;;4827152;29;20073;-85
2022/06/10 04:45:36;;;;;;;15.68;5.28;;;12.00;99.90;;;;;;4827552;29;20034;-85
2022/06/10 04:48:02;;;;;;;13.32;5.10;;;12.10;99.90;;;;;;4841839;29;20049;-85
2022/06/10 04:50:29;;;;;;;12.10;4.85;;;12.20;99.90;;;;;;4804464;29;20456;-85
2022/06/10 04:52:55;;;;;;;11.52;5.22;;;12.40;99.90;;;;;;4868250;29;20482;-85
2022/06/10 04:55:22;;;;;;;12.07;4.80;;;12.80;99.90;;;;;;4845378;29;20459;-85
2022/06/10 04:57:48;;;;;;;13.60;4.80;;;13.30;99.90;;;;;;4858493;29;20057;-85
2022/06/10 05:00:17;;;;;;;11.75;4.30;;;13.90;99.90;;;;;;4845943;29;20072;-85
2022/06/10 05:02:43;;;;;;;14.05;4.68;;;14.30;99.90;;;;;;4860031;29;20128;-85
2022/06/10 05:05:09;;;;;;;11.15;3.97;;;15.00;99.90;;;;;;4830051;29;20203;-85
2022/06/10 05:07:35;;;;;;;13.07;4.10;;;15.70;99.90;;;;;;4824675;29;20038;-85
2022/06/10 05:10:02;;;;;;;11.30;3.97;;;16.10;99.90;;;;;;4868842;29;20489;-85
2022/06/10 05:12:28;;;;;;;12.10;3.80;;;16.50;99.90;;;;;;4845392;29;20095;-85
2022/06/10 05:14:54;;;;;;;12.27;4.00;;;17.30;99.90;;;;;;4830450;29;20083;-86
2022/06/10 05:17:19;;;;;;;12.45;3.90;;;17.80;99.90;;;;;;4860504;29;20045;-86
2022/06/10 05:19:47;;;;;;;10.32;3.67;;;17.90;99.90;;;;;;4829341;29;20073;-86
2022/06/10 05:22:14;;;;;;;11.23;3.63;;;18.60;99.90;;;;;;4830223;29;20052;-86
2022/06/10 05:24:40;;;;;;;12.70;3.53;;;19.00;99.90;;;;;;4847811;29;20052;-86
2022/06/10 05:27:07;;;;;;;12.55;3.85;;;19.50;99.90;;;;;;4830194;29;20041;-86
2022/06/10 05:29:32;;;;;;;12.68;3.45;;;19.80;99.90;;;;;;4845499;29;20033;-86
2022/06/10 05:31:58;;;;;;;11.80;3.55;;;20.00;99.90;;;;;;4826958;29;20076;-86
2022/06/10 05:37:09;;;;;;;14.43;3.85;;;20.40;99.90;;;;;;4863869;29;20094;-87
2022/06/10 05:39:35;;;;;;;13.00;3.80;;;20.50;99.90;;;;;;4837592;29;20068;-87
2022/06/10 05:42:06;;;;;;;11.85;3.80;;;20.30;99.90;;;;;;4811899;29;20053;-86
2022/06/10 05:44:35;;;;;;;12.85;3.75;;;20.80;99.90;;;;;;4857884;29;20049;-86
2022/06/10 05:47:01;;;;;;;11.90;3.60;;;20.90;99.90;;;;;;4858945;29;20070;-86
2022/06/10 05:49:28;;;;;;;11.13;3.90;;;21.10;99.90;;;;;;4844055;29;20049;-86
2022/06/10 05:51:55;;;;;;;12.52;4.32;;;20.90;99.90;;;;;;4861916;29;20520;-86
2022/06/10 05:54:22;;;;;;;12.07;4.10;;;20.50;99.90;;;;;;4859684;29;20089;-86
2022/06/10 05:56:47;;;;;;;12.65;4.20;;;20.60;99.90;;;;;;4852607;29;20069;-86
2022/06/10 05:59:18;;;;;;;12.63;4.15;;;20.20;99.90;;;;;;4825152;29;20046;-86
2022/06/10 06:01:44;;;;;;;11.02;4.25;;;19.90;99.90;;;;;;4856713;29;20042;-86
2022/06/10 06:04:10;;;;;;;14.70;4.35;;;19.30;99.90;;;;;;4874148;29;20146;-86
2022/06/10 06:06:36;;;;;;;11.70;4.80;;;18.90;99.90;;;;;;4841366;29;20594;-86
2022/06/10 06:09:03;;;;;;;11.90;4.68;;;18.60;99.90;;;;;;4852146;29;20045;-86
2022/06/10 06:11:29;;;;;;;12.85;4.60;;;18.40;99.90;;;;;;4838820;29;20379;-86
2022/06/10 06:13:55;;;;;;;10.25;4.30;;;18.20;99.90;;;;;;4829417;29;20124;-86
2022/06/10 06:16:21;;;;;;;11.73;4.35;;;18.00;99.90;;;;;;4825288;29;20041;-86
2022/06/10 06:18:48;;;;;;;10.30;4.00;;;17.80;99.90;;;;;;4874671;29;20054;-86
2022/06/10 06:21:14;;;;;;;11.35;4.30;;;17.70;99.90;;;;;;4862152;29;20046;-85
2022/06/10 06:23:41;;;;;;;12.90;4.22;;;17.60;99.90;;;;;;4852835;29;20060;-85
2022/06/10 06:26:10;;;;;;;11.57;4.53;;;17.50;99.90;;;;;;4824505;29;20037;-85
2022/06/10 06:28:36;;;;;;;9.82;4.00;;;17.40;99.90;;;;;;4835536;29;20037;-85
2022/06/10 06:31:01;;;;;;;12.75;4.63;;;17.30;99.90;;;;;;4848370;29;20226;-85
2022/06/10 06:33:27;;;;;;;12.32;5.13;;;17.30;99.90;;;;;;4847474;29;20332;-85
2022/06/10 06:35:54;;;;;;;11.73;4.90;;;17.20;99.90;;;;;;4862903;29;20040;-85
2022/06/10 06:38:22;;;;;;;13.10;4.38;;;17.20;99.90;;;;;;4828978;29;20122;-85
2022/06/10 06:40:48;;;;;;;14.18;4.53;;;17.10;99.90;;;;;;4847099;29;20046;-85
2022/06/10 06:43:13;;;;;;;11.48;4.32;;;17.10;99.90;;;;;;4836966;29;20044;-85
2022/06/10 06:45:40;;;;;;;12.73;4.70;;;17.00;99.90;;;;;;4828439;29;20064;-85
2022/06/10 06:48:09;;;;;;;12.68;5.10;;;17.00;99.90;;;;;;4860767;29;20613;-85
2022/06/10 06:50:39;;;;;;;12.27;4.80;;;17.00;99.90;;;;;;4829720;29;20098;-85
2022/06/10 06:53:05;;;;;;;12.77;4.75;;;16.90;99.90;;;;;;4859381;29;20128;-85
2022/06/10 06:55:31;;;;;;;13.20;5.05;;;16.90;99.90;;;;;;4848404;29;20068;-85
2022/06/10 06:57:57;;;;;;;18.02;5.18;;;17.00;99.90;;;;;;4843710;29;20140;-85
2022/06/10 07:00:27;;;;;;;10.18;4.40;;;17.00;99.90;;;;;;4845783;29;20510;-85
2022/06/10 07:02:52;;;;;;;12.05;4.63;;;17.00;99.90;;;;;;4812796;29;20046;-85
2022/06/10 07:05:18;;;;;;;12.20;4.60;;;17.20;99.90;;;;;;4843562;29;20045;-85
2022/06/10 07:07:44;;;;;;;10.60;4.53;;;17.40;99.90;;;;;;4825495;29;20042;-85
2022/06/10 07:10:15;;;;;;;13.18;4.53;;;17.50;99.90;;;;;;4852832;29;20042;-85
2022/06/10 07:12:41;;;;;;;13.00;4.60;;;17.60;99.90;;;;;;4827884;29;20056;-85
2022/06/10 07:15:07;;;;;;;15.52;4.80;;;17.50;99.90;;;;;;4843920;29;20053;-85
2022/06/10 07:17:33;;;;;;;12.27;5.88;;;17.30;99.90;;;;;;4828302;29;20446;-85
2022/06/10 07:20:00;;;;;;;11.88;5.05;;;17.10;99.90;;;;;;4825119;29;20094;-85
2022/06/10 07:22:26;;;;;;;13.90;5.72;;;17.10;99.90;;;;;;4841776;29;20081;-85
2022/06/10 07:24:53;;;;;;;16.10;6.25;;;16.90;99.90;;;;;;4858860;29;20519;-85
2022/06/10 07:27:20;;;;;;;13.68;6.15;;;16.90;99.90;;;;;;4844060;29;20414;-85
2022/06/10 07:29:46;;;;;;;13.30;5.78;;;16.90;99.90;;;;;;4834626;29;20038;-85
2022/06/10 07:32:12;;;;;;;10.30;5.50;;;17.00;99.90;;;;;;4847345;29;20094;-85
2022/06/10 07:34:37;;;;;;;11.45;5.75;;;16.90;99.90;;;;;;4842807;29;20076;-85
2022/06/10 07:37:04;;;;;;;12.70;5.72;;;17.00;99.90;;;;;;4831592;29;20065;-85
2022/06/10 07:39:32;;;;;;;12.20;5.63;;;17.00;99.90;;;;;;4862203;29;20116;-85
2022/06/10 07:42:00;;;;;;;12.15;5.93;;;17.10;99.90;;;;;;4845448;29;20056;-85
2022/06/10 07:44:36;;;;;;;12.07;6.55;;;17.20;99.90;;;;;;4833516;29;20050;-85
2022/06/10 07:47:07;;;;;;;10.70;6.30;;;17.30;99.90;;;;;;4834154;29;20066;-85
2022/06/10 07:49:33;;;;;;;10.82;5.93;;;17.30;99.90;;;;;;4851455;29;20037;-85
2022/06/10 07:51:59;;;;;;;11.38;6.60;;;17.40;99.90;;;;;;4864612;29;20072;-85
2022/06/10 07:54:25;;;;;;;11.57;5.85;;;17.50;99.90;;;;;;4852118;29;20049;-85
2022/06/10 07:56:52;;;;;;;14.38;6.00;;;17.60;99.90;;;;;;4848836;29;20072;-85
2022/06/10 07:59:18;;;;;;;14.00;6.55;;;17.70;99.90;;;;;;4846411;29;20053;-85
2022/06/10 08:01:44;;;;;;;13.55;5.50;;;17.80;99.90;;;;;;4844129;29;20081;-85
2022/06/10 08:04:10;;;;;;;13.38;5.60;;;17.90;99.90;;;;;;4844871;29;20042;-86
2022/06/10 08:06:42;;;;;;;9.30;5.05;;;18.00;99.90;;;;;;4854261;29;20379;-86
2022/06/10 08:09:09;;;;;;;13.93;5.75;;;18.30;99.90;;;;;;4846177;29;20487;-86
2022/06/10 08:11:36;;;;;;;12.60;5.15;;;18.50;99.90;;;;;;4864053;29;20101;-86
2022/06/10 08:14:02;;;;;;;13.80;5.20;;;18.60;99.90;;;;;;4863602;29;20054;-86
2022/06/10 08:16:28;;;;;;;12.15;4.90;;;18.70;99.90;;;;;;4843364;29;20302;-86
2022/06/10 08:18:53;;;;;;;10.88;4.80;;;18.80;99.90;;;;;;4856633;29;20466;-86
2022/06/10 08:24:06;;;;;;;11.98;5.30;;;18.70;99.90;;;;;;4844939;29;20079;-86
2022/06/10 08:26:33;;;;;;;12.05;5.03;;;18.60;99.90;;;;;;4845879;29;20120;-86
2022/06/10 08:29:00;;;;;;;11.07;4.95;;;18.50;99.90;;;;;;4846085;29;20127;-86
2022/06/10 08:31:26;;;;;;;11.40;4.90;;;18.60;99.90;;;;;;4848675;29;20437;-86
2022/06/10 08:33:52;;;;;;;12.77;4.63;;;18.70;99.90;;;;;;4827405;29;20041;-86
2022/06/10 08:36:18;;;;;;;10.85;4.80;;;18.80;99.90;;;;;;4849672;29;20084;-85
2022/06/10 08:38:44;;;;;;;12.32;4.90;;;18.80;99.90;;;;;;4844903;29;20076;-86
2022/06/10 08:41:13;;;;;;;11.15;4.55;;;18.90;99.90;;;;;;4839493;29;20420;-86
2022/06/10 08:43:39;;;;;;;11.77;4.63;;;19.10;99.90;;;;;;4831730;29;20046;-86
2022/06/10 08:46:10;;;;;;;11.43;4.45;;;19.10;99.90;;;;;;4840565;29;20102;-86
2022/06/10 08:49:01;;;;;;;11.43;4.68;;;19.10;99.90;;;;;;4852147;29;20160;-86
2022/06/10 08:51:40;;;;;;;13.43;4.60;;;19.20;99.90;;;;;;4855022;29;20128;-86
2022/06/10 08:54:24;;;;;;;12.20;4.25;;;19.30;99.90;;;;;;4858983;29;20049;-86
2022/06/10 08:56:53;;;;;;;11.45;4.25;;;19.30;99.90;;;;;;4847660;29;20186;-86
2022/06/10 08:59:28;;;;;;;13.52;4.57;;;19.50;99.90;;;;;;4850776;29;20141;-86
2022/06/10 09:02:12;;;;;;;12.55;4.03;;;19.80;99.90;;;;;;4868486;29;20439;-86
2022/06/10 09:05:10;;;;;;;12.88;4.28;;;19.90;99.90;;;;;;4857532;29;20088;-86
2022/06/10 09:07:42;;;;;;;11.48;4.45;;;19.90;99.90;;;;;;4811975;29;20505;-86
2022/06/10 09:10:50;;;;;;;11.68;4.05;;;19.90;99.90;;;;;;4858591;29;20080;-86
2022/06/10 09:13:39;;;;;;;11.45;4.03;;;19.80;99.90;;;;;;4871597;29;20053;-86
2022/06/10 09:16:13;;;;;;;12.35;4.78;;;19.80;99.90;;;;;;4873988;29;20076;-86
2022/06/10 09:18:59;;;;;;;10.70;4.22;;;19.80;99.90;;;;;;4859209;29;20053;-86
2022/06/10 09:21:31;;;;;;;8.75;4.18;;;19.80;99.90;;;;;;4850554;29;20049;-86
2022/06/10 09:24:01;;;;;;;10.13;4.10;;;19.60;99.90;;;;;;4842734;29;20065;-86
2022/06/10 09:26:41;;;;;;;9.35;4.18;;;19.50;99.90;;;;;;4871774;29;20060;-86
2022/06/10 09:29:08;;;;;;;9.35;4.10;;;19.40;99.90;;;;;;4871836;29;20042;-86
2022/06/10 09:32:02;;;;;;;13.15;4.70;;;19.30;99.90;;;;;;4838377;29;20042;-86
2022/06/10 09:34:58;;;;;;;13.38;4.57;;;19.30;99.90;;;;;;4858432;29;20045;-86
2022/06/10 09:37:45;;;;;;;10.70;4.53;;;19.10;99.90;;;;;;4858402;29;20086;-86
2022/06/10 09:43:14;;;;;;;12.10;4.72;;;19.10;99.90;;;;;;4859029;29;20441;-86
2022/06/10 09:46:21;;;;;;;11.35;4.88;;;19.10;99.90;;;;;;4861083;29;20041;-86
2022/06/10 09:48:53;;;;;;;11.80;5.38;;;19.00;99.90;;;;;;4875229;29;20104;-86
2022/06/10 09:51:55;;;;;;;12.73;4.55;;;19.00;99.90;;;;;;4865506;29;20607;-86
2022/06/10 09:54:26;;;;;;;12.68;4.80;;;19.00;99.90;;;;;;4860987;29;20041;-86
2022/06/10 09:57:29;;;;;;;11.95;4.22;;;19.00;99.90;;;;;;4846456;29;20049;-86
2022/06/10 10:00:04;;;;;;;11.35;4.55;;;19.10;99.90;;;;;;4858864;29;20065;-86
2022/06/10 10:02:48;;;;;;;10.52;4.28;;;19.20;99.90;;;;;;4851654;29;20045;-86
2022/06/10 10:05:20;;;;;;;11.45;4.00;;;19.20;99.90;;;;;;4857619;29;20045;-86
2022/06/10 10:07:50;;;;;;;14.90;4.30;;;19.30;99.90;;;;;;4858069;29;20037;-86
2022/06/10 10:10:46;;;;;;;10.20;4.07;;;19.30;99.90;;;;;;4840711;29;20041;-86
2022/06/10 10:13:45;;;;;;;11.65;4.55;;;19.30;99.90;;;;;;4839708;29;20051;-86
2022/06/10 10:16:13;;;;;;;12.68;4.00;;;19.30;99.90;;;;;;4855289;29;20553;-86
2022/06/10 10:18:50;;;;;;;11.82;3.80;;;19.30;99.90;;;;;;4858822;29;20105;-86
2022/06/10 10:21:23;;;;;;;10.57;3.78;;;19.30;99.90;;;;;;4857831;29;20085;-86
2022/06/10 10:23:55;;;;;;;10.77;3.47;;;19.40;99.90;;;;;;4851200;29;20053;-86
2022/06/10 10:26:25;;;;;;;10.75;3.60;;;19.30;99.90;;;;;;4865209;29;20470;-86
2022/06/10 10:29:07;;;;;;;11.32;3.88;;;19.50;99.90;;;;;;4830294;29;20125;-86
2022/06/10 10:31:35;;;;;;;;;;;19.80;99.90;;;;;;4851890;29;20046;-86
2022/06/10 10:34:04;;;;;;;10.73;3.47;;;20.20;99.90;;;;;;4842444;29;19920;-86
2022/06/10 10:36:44;;;;;;;9.52;3.13;;;20.60;99.90;;;;;;4842668;29;20048;-86
2022/06/10 10:39:28;;;;;;;11.38;3.50;;;20.90;99.90;;;;;;4837365;29;20093;-86
2022/06/10 10:42:06;;;;;;;10.30;3.70;;;21.20;99.90;;;;;;4845770;29;20113;-86
2022/06/10 10:44:32;;;;;;;9.52;3.35;;;21.40;99.90;;;;;;4855602;29;20048;-86
2022/06/10 10:47:10;;;;;;;10.90;3.40;;;21.50;99.90;;;;;;4852291;29;20046;-86
2022/06/10 10:49:47;;;;;;;11.10;3.50;;;21.60;99.90;;;;;;4853373;29;20041;-86
2022/06/10 10:52:29;;;;;;;12.68;3.67;;;21.90;99.90;;;;;;4847016;29;20387;-86
2022/06/10 10:55:02;;;;;;;9.05;2.88;;;22.10;99.90;;;;;;4843293;29;20413;-86
2022/06/10 10:57:32;;;;;;;9.25;3.00;;;22.30;99.90;;;;;;4847094;29;20505;-87
2022/06/10 11:00:10;;;;;;;11.90;2.77;;;22.60;99.90;;;;;;4851319;29;20417;-86
2022/06/10 11:02:41;;;;;;;9.93;3.20;;;23.00;99.90;;;;;;4874800;29;20053;-87
2022/06/10 11:05:35;;;;;;;11.63;3.10;;;23.20;99.90;;;;;;4861774;29;20511;-87
2022/06/10 11:08:17;;;;;;;11.30;3.70;;;23.40;99.90;;;;;;4856358;29;20128;-86
2022/06/10 11:11:14;;;;;;;11.05;3.42;;;23.20;99.90;;;;;;4858691;29;20125;-87
2022/06/10 11:13:50;;;;;;;10.75;3.83;;;23.20;99.90;;;;;;4859668;29;20046;-87
2022/06/10 11:16:29;;;;;;;8.68;3.65;;;23.10;99.90;;;;;;4862272;29;20037;-87
2022/06/10 11:19:11;;;;;;;9.98;3.72;;;23.00;99.90;;;;;;4863203;29;20561;-87
2022/06/10 11:21:56;;;;;;;8.77;3.70;;;22.80;99.90;;;;;;4842849;29;20079;-87
2022/06/10 11:24:29;;;;;;;11.38;4.10;;;22.70;99.90;;;;;;4844594;29;20109;-87
2022/06/10 11:26:58;;;;;;;10.40;3.95;;;22.50;99.90;;;;;;4854452;29;20033;-87
2022/06/10 11:29:25;;;;;;;13.07;4.18;;;22.50;99.90;;;;;;4868579;29;20065;-87
2022/06/10 11:31:56;;;;;;;11.30;4.32;;;22.50;99.90;;;;;;4843682;29;20049;-87
2022/06/10 11:34:44;;;;;;;9.43;3.95;;;22.50;99.90;;;;;;4841213;29;20520;-86
2022/06/10 11:37:36;;;;;;;9.02;3.55;;;22.50;99.90;;;;;;4853145;29;20045;-87
2022/06/10 11:40:13;;;;;;;8.15;3.15;;;22.50;99.90;;;;;;4836420;29;20053;-87
2022/06/10 11:42:50;;;;;;;10.90;3.30;;;22.70;99.90;;;;;;4834811;29;20050;-87
2022/06/10 11:45:22;;;;;;;11.60;3.40;;;22.90;99.90;;;;;;4842368;29;20045;-87
2022/06/10 11:48:04;;;;;;;10.52;3.00;;;23.20;99.90;;;;;;4838106;29;20041;-87
2022/06/10 11:50:33;;;;;;;10.70;3.05;;;23.40;99.90;;;;;;4845113;29;20049;-87
2022/06/10 11:53:04;;;;;;;10.13;3.10;;;23.50;99.90;;;;;;4840836;29;20125;-86
2022/06/10 11:55:35;;;;;;;10.55;3.33;;;23.40;99.90;;;;;;4855644;29;20079;-86
2022/06/10 12:01:02;;;;;;;10.55;3.50;;;23.40;99.90;;;;;;4853207;29;20314;-86
2022/06/10 12:04:03;;;;;;;12.10;3.80;;;23.40;99.90;;;;;;4867136;29;20074;-86
2022/06/10 12:06:38;;;;;;;11.00;3.60;;;23.40;99.90;;;;;;4822893;29;20458;-86
2022/06/10 12:09:15;;;;;;;10.80;3.20;;;23.40;99.90;;;;;;4873558;29;20497;-86
2022/06/10 12:11:52;;;;;;;11.30;3.22;;;23.20;99.90;;;;;;4853714;29;20049;-86
2022/06/10 12:14:25;;;;;;;9.90;3.00;;;23.10;99.90;;;;;;4844469;29;20041;-86
2022/06/10 12:17:00;;;;;;;13.70;4.53;;;23.00;99.90;;;;;;4857883;29;20077;-86
2022/06/10 12:19:34;;;;;;;11.60;4.15;;;22.80;99.90;;;;;;4846785;29;20050;-86
2022/06/10 12:22:00;;;;;;;9.90;2.90;;;22.70;99.90;;;;;;4868638;29;20049;-86
2022/06/10 12:24:26;;;;;;;9.38;2.70;;;22.60;99.90;;;;;;4842626;29;20175;-86
2022/06/10 12:27:06;;;;;;;9.77;2.80;;;22.30;99.90;;;;;;4840841;29;20129;-86
2022/06/10 12:29:54;;;;;;;9.35;2.70;;;22.10;99.90;;;;;;4846043;29;20034;-86
2022/06/10 12:32:39;;;;;;;9.20;2.88;;;22.10;99.90;;;;;;4845174;29;20041;-86
2022/06/10 12:35:16;;;;;;;9.23;3.05;;;22.00;99.90;;;;;;4856022;29;20049;-86
2022/06/10 12:38:17;;;;;;;9.57;2.88;;;21.70;99.90;;;;;;4858745;29;20169;-86
2022/06/10 12:40:49;;;;;;;8.25;2.45;;;21.60;99.90;;;;;;4841818;29;20041;-86
2022/06/10 12:43:29;;;;;;;10.88;2.50;;;21.60;99.90;;;;;;4858561;29;20050;-86
2022/06/10 12:46:06;;;;;;;9.77;2.83;;;21.70;99.90;;;;;;4836395;29;20034;-86
2022/06/10 12:48:40;;;;;;;9.15;2.80;;;21.90;99.90;;;;;;4834563;29;20698;-86
2022/06/10 12:51:12;;;;;;;11.02;2.90;;;22.00;99.90;;;;;;4836131;29;20045;-86
2022/06/10 12:53:44;;;;;;;9.00;2.97;;;21.80;99.90;;;;;;4858184;29;20060;-86
2022/06/10 12:56:19;;;;;;;12.20;3.10;;;22.20;99.90;;;;;;4833031;29;20046;-86
2022/06/10 12:58:49;;;;;;;10.82;2.88;;;22.10;99.90;;;;;;4865503;29;20114;-86
2022/06/10 13:01:22;;;;;;;10.20;2.83;;;22.30;99.90;;;;;;4833139;29;20042;-86
2022/06/10 13:04:13;;;;;;;8.73;2.67;;;22.00;99.90;;;;;;4834736;29;20178;-86
2022/06/10 13:06:42;;;;;;;10.03;2.87;;;22.00;99.90;;;;;;4840262;29;20050;-86
2022/06/10 13:09:11;;;;;;;10.25;3.10;;;22.00;99.90;;;;;;4850107;29;20314;-86
2022/06/10 13:11:49;;;;;;;9.65;2.80;;;22.10;99.90;;;;;;4846984;29;20052;-86
2022/06/10 13:14:30;;;;;;;10.30;2.75;;;22.20;99.90;;;;;;4856405;29;20097;-86
2022/06/10 13:16:58;;;;;;;9.80;2.63;;;22.50;99.90;;;;;;4857968;29;20049;-86
2022/06/10 13:19:52;;;;;;;9.63;2.60;;;22.50;99.90;;;;;;4851295;29;20045;-86
2022/06/10 13:22:20;;;;;;;9.95;2.78;;;22.60;99.90;;;;;;4862584;29;20049;-86
2022/06/10 13:24:52;;;;;;;8.00;2.30;;;22.80;99.90;;;;;;4860174;29;20045;-86
2022/06/10 13:27:25;;;;;;;9.13;2.40;;;23.00;99.90;;;;;;4872222;29;20060;-86